Borculo, Michigan
Current Conditions -  °F | °C
As of 11:53 PM on Saturday 20 Dec 2014 (Local Time) from KBIV Reporting Station
Overcast Overcast  
Wind Chill: 26°   Ceiling: 1900
Heat Index: 32°   Visibility: 8mi
Dew Point: 27°   Wind: 6mph
Humidity: 82%   Direction: 180°S
Pressure: 30.26"   Gusts: NA
Location:  42.8513°N, 85.9891°W
Report Text: KBIV 210453Z AUTO 18005KT 8SM OVC019 00/M03 A3026 RMK AO2 SLP255 T00001028 400001061
Loading
Personal Weather Stations






























Interactive Weather Map New forecast layout! Learn more

10-Day Weather Forecast

Advertisements
Track Severe Weather on mobile